createdAt,value
2023-03-26T00:01:17.069Z,1.33
2023-03-26T00:03:47.166Z,1.98
2023-03-26T00:06:17.208Z,1.65
2023-03-26T00:08:45.784Z,1.20
2023-03-26T00:11:14.833Z,1.20
2023-03-26T00:13:43.712Z,1.48
2023-03-26T00:16:13.745Z,1.70
2023-03-26T00:18:42.479Z,2.08
2023-03-26T00:21:13.093Z,1.80
2023-03-26T00:23:40.013Z,2.10
2023-03-26T00:26:10.683Z,2.25
2023-03-26T00:28:40.434Z,2.47
2023-03-26T00:31:10.553Z,1.85
2023-03-26T00:33:38.254Z,1.95
2023-03-26T00:36:09.889Z,1.98
2023-03-26T00:41:17.539Z,1.92
2023-03-26T00:43:46.711Z,1.88
2023-03-26T00:46:13.274Z,2.08
2023-03-26T00:48:45.465Z,2.10
2023-03-26T00:51:15.406Z,1.90
2023-03-26T00:53:46.341Z,2.40
2023-03-26T00:56:13.596Z,1.92
2023-03-26T00:58:40.602Z,2.03
2023-03-26T01:01:18.889Z,1.80
2023-03-26T01:03:57.101Z,1.58
2023-03-26T01:06:35.683Z,1.75
2023-03-26T01:09:11.099Z,1.92
2023-03-26T01:11:37.719Z,1.52
2023-03-26T01:14:14.566Z,1.45
2023-03-26T01:16:45.160Z,1.70
2023-03-26T01:19:22.790Z,1.60
2023-03-26T01:21:49.299Z,1.65
2023-03-26T01:24:16.227Z,1.40
2023-03-26T01:27:04.424Z,2.10
2023-03-26T01:29:41.759Z,1.33
2023-03-26T01:32:24.405Z,1.40
2023-03-26T01:34:59.020Z,1.15
2023-03-26T01:37:30.492Z,1.52
2023-03-26T01:40:07.171Z,1.60
2023-03-26T01:42:59.434Z,1.27
2023-03-26T01:45:30.860Z,1.30
2023-03-26T01:47:58.409Z,1.88
2023-03-26T01:50:25.499Z,1.25
2023-03-26T01:52:52.032Z,1.35
2023-03-26T01:55:18.947Z,1.33
2023-03-26T01:58:00.442Z,1.20
2023-03-26T02:00:33.658Z,1.30
2023-03-26T02:03:31.511Z,1.27
2023-03-26T02:06:20.211Z,1.63
2023-03-26T02:09:07.036Z,1.60
2023-03-26T02:11:37.182Z,1.23
2023-03-26T02:14:05.973Z,1.30
2023-03-26T02:16:32.956Z,1.20
2023-03-26T02:19:00.234Z,1.05
2023-03-26T02:21:27.928Z,1.48
2023-03-26T02:24:03.358Z,1.27
2023-03-26T02:26:34.360Z,1.13
2023-03-26T02:29:07.585Z,1.80
2023-03-26T02:31:36.753Z,1.30
2023-03-26T02:34:03.321Z,1.20
2023-03-26T02:36:33.008Z,1.17
2023-03-26T02:39:02.443Z,1.20
2023-03-26T02:41:32.976Z,1.20
2023-03-26T02:44:03.948Z,1.20
2023-03-26T02:46:50.439Z,1.20
2023-03-26T02:49:35.809Z,1.23
2023-03-26T02:52:06.305Z,1.40
2023-03-26T02:54:34.479Z,1.00
2023-03-26T02:57:21.429Z,1.27
2023-03-26T03:00:12.693Z,1.80
2023-03-26T03:02:39.820Z,2.05
2023-03-26T03:05:26.673Z,1.40
2023-03-26T03:08:11.448Z,1.67
2023-03-26T03:10:44.630Z,1.35
2023-03-26T03:13:19.709Z,1.73
2023-03-26T03:15:47.116Z,1.50
2023-03-26T03:18:13.656Z,1.33
2023-03-26T03:20:40.313Z,1.60
2023-03-26T03:23:06.973Z,1.40
2023-03-26T03:25:33.771Z,1.67
2023-03-26T03:28:00.657Z,1.13
2023-03-26T03:30:27.201Z,1.65
2023-03-26T03:32:53.765Z,1.20
2023-03-26T03:35:23.134Z,1.45
2023-03-26T03:37:54.095Z,1.52
2023-03-26T03:40:20.654Z,1.20
2023-03-26T03:42:47.495Z,1.50
2023-03-26T03:45:20.345Z,1.60
2023-03-26T03:48:06.476Z,1.42
2023-03-26T03:50:39.249Z,1.30
2023-03-26T03:53:26.475Z,1.60
2023-03-26T03:55:58.539Z,1.52
2023-03-26T03:58:47.995Z,1.08
2023-03-26T04:01:22.651Z,1.40
2023-03-26T04:03:58.810Z,1.13
2023-03-26T04:06:37.074Z,1.10
2023-03-26T04:09:03.964Z,1.45
2023-03-26T04:11:30.785Z,1.60
2023-03-26T04:14:12.154Z,1.20
2023-03-26T04:16:59.807Z,1.60
2023-03-26T04:19:28.894Z,1.77
2023-03-26T04:21:55.454Z,1.70
2023-03-26T04:24:22.425Z,1.67
2023-03-26T04:27:16.508Z,1.73
2023-03-26T04:29:48.172Z,1.95
2023-03-26T04:32:19.411Z,1.48
2023-03-26T04:34:47.937Z,1.77
2023-03-26T04:37:26.522Z,1.65
2023-03-26T04:40:11.417Z,1.60
2023-03-26T04:42:47.333Z,1.33
2023-03-26T04:45:26.156Z,1.33
2023-03-26T04:47:59.760Z,2.22
2023-03-26T04:50:26.878Z,1.40
2023-03-26T04:52:56.663Z,1.58
2023-03-26T04:55:59.104Z,1.55
2023-03-26T04:58:46.037Z,1.45
2023-03-26T05:01:12.566Z,1.45
2023-03-26T05:03:45.606Z,1.80
2023-03-26T05:06:14.096Z,1.30
2023-03-26T05:08:41.789Z,1.88
2023-03-26T05:11:12.247Z,1.10
2023-03-26T05:13:39.536Z,1.17
2023-03-26T05:16:11.409Z,1.52
2023-03-26T05:18:47.671Z,1.60
2023-03-26T05:21:14.283Z,1.33
2023-03-26T05:23:41.039Z,1.60
2023-03-26T05:26:16.969Z,1.35
2023-03-26T05:28:43.525Z,1.83
2023-03-26T05:31:33.431Z,1.80
2023-03-26T05:34:01.434Z,1.67
2023-03-26T05:36:28.404Z,1.60
2023-03-26T05:39:06.107Z,1.60
2023-03-26T05:41:55.868Z,1.88
2023-03-26T05:44:28.225Z,1.98
2023-03-26T05:46:55.319Z,1.90
2023-03-26T05:49:25.726Z,2.55
2023-03-26T05:51:55.445Z,1.83
2023-03-26T05:54:34.671Z,2.00
2023-03-26T05:57:22.196Z,1.90
2023-03-26T06:00:24.192Z,1.58
2023-03-26T06:02:56.485Z,1.50
2023-03-26T06:05:57.966Z,1.80
2023-03-26T06:08:39.619Z,1.73
2023-03-26T06:11:10.264Z,1.95
2023-03-26T06:13:39.895Z,2.08
2023-03-26T06:16:07.089Z,1.33
2023-03-26T06:18:37.059Z,1.65
2023-03-26T06:21:12.380Z,1.50
2023-03-26T06:23:44.538Z,1.80
2023-03-26T06:26:30.642Z,1.90
2023-03-26T06:29:17.066Z,1.75
2023-03-26T06:32:16.384Z,1.40
2023-03-26T06:34:49.897Z,1.48
2023-03-26T06:37:18.116Z,1.55
2023-03-26T06:39:46.278Z,1.75
2023-03-26T06:42:18.764Z,1.35
2023-03-26T06:44:45.386Z,1.33
2023-03-26T06:47:30.822Z,1.42
2023-03-26T06:50:15.942Z,1.27
2023-03-26T06:53:11.895Z,1.42
2023-03-26T06:55:54.593Z,1.35
2023-03-26T06:58:23.859Z,1.42
2023-03-26T07:01:09.053Z,2.00
2023-03-26T07:03:54.462Z,1.48
2023-03-26T07:06:39.665Z,1.42
2023-03-26T07:09:26.261Z,1.23
2023-03-26T07:12:27.940Z,1.40
2023-03-26T07:15:12.906Z,1.40
2023-03-26T07:18:14.979Z,1.38
2023-03-26T07:20:45.142Z,1.60
2023-03-26T07:23:13.744Z,1.40
2023-03-26T07:25:56.729Z,1.35
2023-03-26T07:28:40.076Z,1.77
2023-03-26T07:31:27.088Z,1.73
2023-03-26T07:34:40.587Z,1.33
2023-03-26T07:37:50.203Z,1.15
2023-03-26T07:40:49.100Z,1.25
2023-03-26T07:44:18.333Z,1.80
2023-03-26T07:47:32.758Z,1.30
2023-03-26T07:50:23.496Z,1.25
2023-03-26T07:53:01.872Z,1.33
2023-03-26T07:55:41.708Z,1.60
2023-03-26T07:59:13.061Z,1.60
2023-03-26T08:02:33.527Z,1.40
2023-03-26T08:05:30.291Z,1.38
2023-03-26T08:08:25.722Z,1.88
2023-03-26T08:11:30.074Z,1.60
2023-03-26T08:14:03.113Z,1.50
2023-03-26T08:17:00.674Z,1.60
2023-03-26T08:19:50.830Z,1.50
2023-03-26T08:22:26.251Z,1.55
2023-03-26T08:25:12.242Z,1.65
2023-03-26T08:27:51.742Z,1.60
2023-03-26T08:30:24.440Z,1.23
2023-03-26T08:33:21.399Z,1.48
2023-03-26T08:35:48.925Z,2.60
2023-03-26T08:38:18.457Z,1.60
2023-03-26T08:41:14.642Z,1.80
2023-03-26T08:43:56.510Z,2.10
2023-03-26T08:46:32.357Z,2.15
2023-03-26T08:49:29.922Z,1.65
2023-03-26T08:52:18.224Z,2.50
2023-03-26T08:55:06.638Z,2.10
2023-03-26T08:57:53.539Z,2.70
2023-03-26T09:00:31.052Z,2.58
2023-03-26T09:03:35.762Z,2.47
2023-03-26T09:06:17.452Z,2.58
2023-03-26T09:09:33.113Z,2.88
2023-03-26T09:12:25.471Z,2.63
2023-03-26T09:15:20.324Z,2.70
2023-03-26T09:18:05.747Z,2.78
2023-03-26T09:21:01.902Z,2.80
2023-03-26T09:23:48.432Z,3.47
2023-03-26T09:26:25.986Z,3.38
2023-03-26T09:29:22.538Z,2.85
2023-03-26T09:32:26.540Z,4.93
2023-03-26T09:35:13.780Z,3.05
2023-03-26T09:37:58.612Z,2.28
2023-03-26T09:40:44.860Z,2.30
2023-03-26T09:43:42.902Z,1.90
2023-03-26T09:46:28.243Z,2.15
2023-03-26T09:49:25.260Z,2.15
2023-03-26T09:52:21.012Z,2.00
2023-03-26T09:54:53.513Z,1.98
2023-03-26T09:57:37.606Z,1.50
2023-03-26T10:00:43.265Z,1.80
2023-03-26T10:03:32.518Z,1.80
2023-03-26T10:06:37.081Z,1.52
2023-03-26T10:09:18.236Z,1.40
2023-03-26T10:11:47.729Z,1.40
2023-03-26T10:14:32.692Z,0.65
2023-03-26T10:17:28.342Z,1.40
2023-03-26T10:20:09.350Z,0.60
2023-03-26T10:22:57.769Z,0.60
2023-03-26T10:25:50.718Z,0.70
2023-03-26T10:28:55.691Z,0.50
2023-03-26T10:31:51.382Z,0.90
2023-03-26T10:34:55.658Z,0.70
2023-03-26T10:37:37.779Z,1.05
2023-03-26T10:40:20.262Z,0.50
2023-03-26T10:43:02.006Z,0.40
2023-03-26T10:45:35.760Z,0.65
2023-03-26T10:48:30.220Z,0.40
2023-03-26T10:51:05.689Z,0.50
2023-03-26T10:53:50.563Z,0.40
2023-03-26T10:56:28.549Z,0.50
2023-03-26T10:58:56.992Z,0.45
2023-03-26T11:01:43.745Z,0.80
2023-03-26T11:04:26.979Z,0.47
2023-03-26T11:06:53.439Z,0.50
2023-03-26T11:09:31.065Z,0.40
2023-03-26T11:12:27.108Z,0.50
2023-03-26T11:15:06.436Z,0.32
2023-03-26T11:17:50.619Z,0.30
2023-03-26T11:20:40.252Z,0.30
2023-03-26T11:23:21.879Z,0.70
2023-03-26T11:25:51.290Z,0.60
2023-03-26T11:28:31.870Z,0.63
2023-03-26T11:31:08.507Z,0.60
2023-03-26T11:33:45.537Z,0.50
2023-03-26T11:36:17.725Z,0.80
2023-03-26T11:38:47.425Z,0.40
2023-03-26T11:41:25.757Z,0.43
2023-03-26T11:44:05.287Z,0.70
2023-03-26T11:46:38.779Z,0.70
2023-03-26T11:49:11.176Z,0.70
2023-03-26T11:51:39.973Z,0.70
2023-03-26T11:54:11.092Z,0.60
2023-03-26T11:57:04.458Z,0.50
2023-03-26T11:59:56.576Z,0.60
2023-03-26T12:02:35.562Z,0.55
2023-03-26T12:05:33.423Z,0.55
2023-03-26T12:08:02.709Z,0.70
2023-03-26T12:10:32.539Z,0.60
2023-03-26T12:13:02.597Z,0.75
2023-03-26T12:15:31.938Z,1.15
2023-03-26T12:18:17.412Z,0.73
2023-03-26T12:20:45.008Z,0.75
2023-03-26T12:23:36.177Z,0.57
2023-03-26T12:26:14.275Z,0.80
2023-03-26T12:28:48.824Z,0.90
2023-03-26T12:31:19.051Z,0.68
2023-03-26T12:34:07.750Z,0.70
2023-03-26T12:36:35.721Z,0.80
2023-03-26T12:40:07.089Z,0.90
2023-03-26T12:44:48.503Z,0.80
2023-03-26T12:45:14.432Z,0.57
2023-03-26T12:47:57.523Z,0.63
2023-03-26T12:51:12.839Z,0.40
2023-03-26T12:53:59.194Z,0.60
2023-03-26T12:56:38.472Z,0.50
2023-03-26T12:59:23.436Z,0.70
2023-03-26T13:02:29.207Z,0.80
2023-03-26T13:05:06.537Z,0.60
2023-03-26T13:07:58.512Z,0.68
2023-03-26T13:10:53.529Z,0.70
2023-03-26T13:13:32.962Z,0.93
2023-03-26T13:16:04.368Z,0.70
2023-03-26T13:18:37.180Z,0.70
2023-03-26T13:21:12.509Z,0.70
2023-03-26T13:24:00.671Z,0.75
2023-03-26T13:26:55.170Z,0.60
2023-03-26T13:29:31.390Z,0.65
2023-03-26T13:32:23.066Z,0.70
2023-03-26T13:35:18.151Z,0.80
2023-03-26T13:38:05.545Z,0.95
2023-03-26T13:40:37.710Z,0.50
2023-03-26T13:43:32.521Z,0.50
2023-03-26T13:46:13.572Z,1.55
2023-03-26T13:48:52.915Z,0.60
2023-03-26T13:51:56.002Z,0.80
2023-03-26T13:54:31.306Z,0.95
2023-03-26T13:57:07.635Z,0.60
2023-03-26T13:59:54.478Z,1.10
2023-03-26T14:02:33.687Z,0.40
2023-03-26T14:05:05.445Z,0.57
2023-03-26T14:07:44.640Z,0.90
2023-03-26T14:10:22.173Z,0.52
2023-03-26T14:13:19.044Z,0.50
2023-03-26T14:15:58.348Z,0.47
2023-03-26T14:18:35.841Z,0.65
2023-03-26T14:21:21.658Z,0.90
2023-03-26T14:24:26.651Z,0.75
2023-03-26T14:27:08.431Z,0.57
2023-03-26T14:32:36.861Z,0.50
2023-03-26T14:35:46.975Z,0.20
2023-03-26T14:38:38.263Z,0.60
2023-03-26T14:41:24.782Z,0.47
2023-03-26T14:44:09.781Z,0.30
2023-03-26T14:46:50.939Z,0.52
2023-03-26T14:49:17.423Z,0.20
2023-03-26T14:52:09.597Z,0.30
2023-03-26T14:54:42.909Z,0.40
2023-03-26T14:57:28.948Z,0.15
2023-03-26T15:00:20.821Z,0.28
2023-03-26T15:05:42.841Z,0.40
2023-03-26T15:08:35.175Z,0.20
2023-03-26T15:13:48.457Z,0.20
2023-03-26T15:16:45.394Z,0.30
2023-03-26T15:19:30.832Z,0.20
2023-03-26T15:22:20.141Z,0.20
2023-03-26T15:25:21.999Z,0.43
2023-03-26T15:28:25.544Z,0.20
2023-03-26T15:31:31.694Z,0.40
2023-03-26T15:34:23.958Z,0.50
2023-03-26T15:37:11.865Z,0.25
2023-03-26T15:40:08.260Z,0.30
2023-03-26T15:42:53.621Z,0.10
2023-03-26T15:45:37.034Z,0.32
2023-03-26T15:48:12.595Z,0.50
2023-03-26T15:50:48.121Z,0.43
2023-03-26T15:53:29.708Z,0.30
2023-03-26T15:56:34.119Z,0.15
2023-03-26T15:59:06.263Z,0.45
2023-03-26T16:02:04.444Z,0.40
2023-03-26T16:04:52.341Z,0.30
2023-03-26T16:07:39.072Z,0.30
2023-03-26T16:10:28.156Z,0.30
2023-03-26T16:13:16.510Z,0.20
2023-03-26T16:15:51.516Z,0.30
2023-03-26T16:18:25.313Z,0.20
2023-03-26T16:21:04.329Z,0.30
2023-03-26T16:23:53.671Z,0.28
2023-03-26T16:26:35.551Z,0.30
2023-03-26T16:31:38.687Z,0.20
2023-03-26T16:34:07.791Z,0.10
2023-03-26T16:36:44.171Z,0.28
2023-03-26T16:39:24.381Z,0.20
2023-03-26T16:42:06.467Z,0.30
2023-03-26T16:45:00.915Z,0.60
2023-03-26T16:47:45.934Z,0.47
2023-03-26T16:50:12.461Z,0.30
2023-03-26T16:52:56.893Z,0.38
2023-03-26T16:55:42.738Z,0.22
2023-03-26T16:58:37.113Z,0.47
2023-03-26T17:01:08.470Z,0.30
2023-03-26T17:04:07.069Z,0.13
2023-03-26T17:06:56.454Z,0.28
2023-03-26T17:09:34.291Z,0.35
2023-03-26T17:12:12.463Z,0.30
2023-03-26T17:15:06.392Z,0.20
2023-03-26T17:17:54.861Z,0.35
2023-03-26T17:20:33.394Z,0.25
2023-03-26T17:23:13.884Z,0.32
2023-03-26T17:25:54.339Z,0.40
2023-03-26T17:28:47.005Z,0.60
2023-03-26T17:31:41.197Z,0.40
2023-03-26T17:34:39.101Z,0.30
2023-03-26T17:37:10.464Z,0.40
2023-03-26T17:39:39.874Z,0.30
2023-03-26T17:42:15.700Z,0.30
2023-03-26T17:44:44.130Z,0.40
2023-03-26T17:47:20.749Z,0.60
2023-03-26T17:49:52.848Z,0.40
2023-03-26T17:52:48.088Z,0.40
2023-03-26T17:55:19.651Z,0.40
2023-03-26T17:57:51.522Z,0.30
2023-03-26T18:00:22.718Z,0.40
2023-03-26T18:02:57.200Z,0.60
2023-03-26T18:05:28.178Z,0.38
2023-03-26T18:08:28.358Z,0.60
2023-03-26T18:11:17.586Z,0.60
2023-03-26T18:14:02.511Z,0.88
2023-03-26T18:16:59.796Z,0.73
2023-03-26T18:19:26.831Z,0.50
2023-03-26T18:21:56.783Z,0.70
2023-03-26T18:24:32.836Z,0.90
2023-03-26T18:27:06.102Z,0.75
2023-03-26T18:29:35.315Z,0.77
2023-03-26T18:32:03.546Z,0.63
2023-03-26T18:34:32.801Z,0.50
2023-03-26T18:37:14.611Z,0.50
2023-03-26T18:42:23.459Z,0.40
2023-03-26T18:44:52.941Z,0.40
2023-03-26T18:47:20.460Z,1.05
2023-03-26T18:49:49.597Z,0.60
2023-03-26T18:52:19.276Z,0.50
2023-03-26T18:54:52.778Z,0.22
2023-03-26T18:57:27.132Z,0.30
2023-03-26T18:59:56.604Z,0.47
2023-03-26T19:02:25.254Z,0.38
2023-03-26T20:51:52.699Z,0.50
2023-03-26T20:54:24.115Z,0.50
2023-03-26T20:56:51.139Z,0.32
2023-03-26T20:59:22.273Z,0.40
